Terminal Aerodrome Forecast
Issued by NWS Omaha/Valley, NE

Home | Current Version | Previous Version | Text Only | Print | Product List | Glossary On
Versions: 1 2 3 4 5 6 7 8 9 10 11 12 13 14 15 16 17 18 19 20 21 22 23 24
000
FTUS43 KOAX 281253 AAA
TAFOFK
TAF AMD
KOFK 281253Z 2813/2912 15004KT 1/2SM FG VV002
     FM281500 11007KT 2SM BR SCT004 BKN090
     FM281700 11008KT P6SM BKN060
     FM290000 10008KT P6SM OVC060
     FM290300 09007KT P6SM -RA OVC025
     FM290600 07007KT 5SM -RA BR OVC008=

USA.gov is the U.S. government's official web portal to all federal, state and local government web resources and services.